MAPA DE AEROPUERTO

INFORMACIÓN METAR y TAF

METAR FOR LGSK
ADDS - METARS form results

(1701 UTC 23 October 2021)
Data provider http://aviationweather.gov/metar/data/
 
Forecast for: LGSK (SKIATHOS ISLAND , GR)
Text: TAF LGSK 231400Z 2315/2324 14008KT 9999 FEW020
Forecast period: 1500 UTC 23 October 2021 to 0000 UTC 24 October 2021
Forecast type: FROM: standard forecast or significant change
Winds: from the SE (140 degrees) at 9 MPH (8 knots; 4.1 m/s)
Visibility: 6 or more miles (10+ km)
Ceiling: at least 12,000 feet AGL
Clouds: few clouds at 2000 feet AGL
Weather: no significant weather forecast for this period